Time;durP1;ratioP1;P1;durP2;ratioP2;P2;SDS_P1;SDS_P2;PMS_P1;PMS_P2;Temp;Humidity;BMP_temperature;BMP_pressure;BME280_temperature;BME280_humidity;BME280_pressure;Samples;Min_cycle;Max_cycle;Signal;HPM_P1;HPM_P2
2021/12/08 00:00:36;;;;;;;2.92;1.75;;;8.40;72.60;;;;;;5006960;28;20456;-47
2021/12/08 00:03:07;;;;;;;1.48;1.27;;;8.30;72.70;;;;;;5009215;28;20034;-51
2021/12/08 00:05:36;;;;;;;1.80;1.25;;;8.30;72.80;;;;;;5015410;28;20116;-47
2021/12/08 00:08:05;;;;;;;3.65;1.85;;;8.30;72.80;;;;;;5009476;28;20049;-47
2021/12/08 00:13:04;;;;;;;2.42;1.05;;;8.30;72.90;;;;;;5014744;28;20054;-50
2021/12/08 00:15:39;;;;;;;3.63;1.95;;;8.30;73.10;;;;;;5024493;28;20030;-48
2021/12/08 00:18:10;;;;;;;4.22;1.95;;;8.30;73.30;;;;;;4992881;28;20042;-49
2021/12/08 00:20:38;;;;;;;4.40;2.00;;;8.30;73.40;;;;;;5002158;28;20104;-48
2021/12/08 00:23:07;;;;;;;4.93;1.65;;;8.30;73.30;;;;;;5020283;28;20413;-50
2021/12/08 00:25:36;;;;;;;3.10;1.88;;;8.30;73.40;;;;;;5032030;28;20497;-47
2021/12/08 00:28:05;;;;;;;4.65;1.50;;;8.30;73.40;;;;;;5032101;28;20046;-49
2021/12/08 00:30:34;;;;;;;3.08;2.13;;;8.30;73.40;;;;;;5017280;28;20100;-48
2021/12/08 00:33:01;;;;;;;3.15;1.90;;;8.30;73.50;;;;;;5025386;28;20052;-50
2021/12/08 00:35:28;;;;;;;3.88;1.50;;;8.30;73.40;;;;;;5030388;28;20496;-47
2021/12/08 00:37:56;;;;;;;2.30;1.60;;;8.30;73.40;;;;;;5017086;28;20046;-48
2021/12/08 00:40:25;;;;;;;2.28;1.70;;;8.30;73.50;;;;;;5013973;28;20041;-49
2021/12/08 00:42:52;;;;;;;4.63;1.92;;;8.40;73.60;;;;;;5023983;28;20048;-48
2021/12/08 00:45:21;;;;;;;2.40;1.95;;;8.40;73.60;;;;;;5031438;28;20440;-47
2021/12/08 00:47:52;;;;;;;2.25;1.33;;;8.40;73.70;;;;;;5018792;28;20378;-47
2021/12/08 00:50:21;;;;;;;1.65;1.30;;;8.40;73.70;;;;;;5027733;28;20072;-50
2021/12/08 00:52:51;;;;;;;1.60;1.40;;;8.40;73.70;;;;;;5031459;28;20072;-46
2021/12/08 00:55:19;;;;;;;1.67;1.50;;;8.50;73.70;;;;;;5019104;28;20037;-46
2021/12/08 00:57:46;;;;;;;2.90;2.40;;;8.50;73.80;;;;;;5018575;28;20045;-48
2021/12/08 01:00:21;;;;;;;2.75;2.03;;;8.50;73.80;;;;;;5020545;28;20752;-47
2021/12/08 01:02:48;;;;;;;5.25;2.92;;;8.50;73.90;;;;;;5031413;28;20046;-46
2021/12/08 01:05:18;;;;;;;2.70;1.98;;;8.50;73.90;;;;;;5031256;28;20045;-51
2021/12/08 01:07:46;;;;;;;2.25;1.63;;;8.50;74.00;;;;;;5011796;28;20474;-46
2021/12/08 01:10:19;;;;;;;3.15;1.50;;;8.60;74.10;;;;;;5016973;28;20033;-47
2021/12/08 01:13:03;;;;;;;1.48;1.08;;;8.60;74.30;;;;;;5012834;28;20041;-47
2021/12/08 01:15:30;;;;;;;2.67;1.08;;;8.60;74.40;;;;;;5011944;28;20038;-48
2021/12/08 01:17:57;;;;;;;3.08;1.00;;;8.60;74.50;;;;;;5017028;28;20080;-46
2021/12/08 01:20:24;;;;;;;1.60;1.20;;;8.70;74.70;;;;;;5027188;28;20037;-50
2021/12/08 01:22:51;;;;;;;3.15;0.90;;;8.70;74.80;;;;;;5030469;28;20107;-48
2021/12/08 01:25:18;;;;;;;1.52;0.80;;;8.70;75.00;;;;;;5015550;28;20053;-48
2021/12/08 01:27:45;;;;;;;1.33;0.70;;;8.70;75.00;;;;;;5011232;28;20080;-45
2021/12/08 01:30:12;;;;;;;0.77;0.70;;;8.80;75.10;;;;;;5011050;28;20041;-48
2021/12/08 01:32:40;;;;;;;0.80;0.80;;;8.90;75.10;;;;;;5007382;28;20413;-47
2021/12/08 01:35:09;;;;;;;2.78;0.50;;;8.90;75.10;;;;;;5009635;28;20045;-48
2021/12/08 01:37:37;;;;;;;0.50;0.50;;;9.00;75.00;;;;;;5005967;28;20065;-50
2021/12/08 01:40:06;;;;;;;1.77;0.90;;;9.00;75.60;;;;;;5013556;28;20037;-48
2021/12/08 01:42:41;;;;;;;1.20;0.50;;;9.10;74.80;;;;;;5029446;28;20119;-48
2021/12/08 01:47:55;;;;;;;1.30;0.38;;;9.20;74.40;;;;;;5028293;28;20103;-48
2021/12/08 01:50:22;;;;;;;0.57;0.30;;;9.20;74.20;;;;;;5031128;28;20378;-49
2021/12/08 01:52:49;;;;;;;1.08;0.30;;;9.30;74.10;;;;;;5013407;28;20097;-47
2021/12/08 01:55:16;;;;;;;0.50;0.40;;;9.30;73.90;;;;;;5015700;28;20053;-49
2021/12/08 01:57:44;;;;;;;1.83;0.65;;;9.40;73.90;;;;;;5021478;28;20057;-45
2021/12/08 02:00:20;;;;;;;0.73;0.40;;;9.40;73.80;;;;;;5030290;28;20042;-47
2021/12/08 02:02:56;;;;;;;1.05;0.30;;;9.40;73.70;;;;;;5029065;28;20060;-48
2021/12/08 02:05:23;;;;;;;0.70;0.50;;;9.40;73.60;;;;;;5012423;28;20038;-50
2021/12/08 02:07:50;;;;;;;0.70;0.43;;;9.40;73.50;;;;;;5024030;28;20428;-50
2021/12/08 02:10:18;;;;;;;0.95;0.38;;;9.40;73.50;;;;;;5017429;28;20497;-50
2021/12/08 02:12:46;;;;;;;1.15;0.50;;;9.40;73.40;;;;;;5002665;28;20046;-49
2021/12/08 02:15:16;;;;;;;2.45;0.35;;;9.40;73.40;;;;;;5018708;28;20055;-46
2021/12/08 02:17:45;;;;;;;1.58;0.40;;;9.50;73.40;;;;;;5030195;28;20033;-46
2021/12/08 02:20:14;;;;;;;0.70;0.55;;;9.50;73.60;;;;;;5028866;28;20041;-47
2021/12/08 02:22:42;;;;;;;0.85;0.65;;;9.40;73.60;;;;;;5018572;28;20042;-46
2021/12/08 02:25:13;;;;;;;2.42;0.45;;;9.50;73.70;;;;;;5017669;28;20091;-47
2021/12/08 02:27:40;;;;;;;0.85;0.30;;;9.50;73.70;;;;;;5030027;28;20041;-45
2021/12/08 02:30:25;;;;;;;1.05;0.73;;;9.50;73.70;;;;;;5033361;28;20041;-48
2021/12/08 02:47:53;;;;;;;4.88;0.80;;;9.70;73.30;;;;;;5036453;28;20068;-46
2021/12/08 02:49:55;;;;;;;2.95;0.82;;;9.70;73.30;;;;;;5022434;28;20522;-49
2021/12/08 02:52:22;;;;;;;5.40;1.38;;;9.70;73.30;;;;;;5017882;28;20042;-46
2021/12/08 02:54:51;;;;;;;1.77;0.93;;;9.70;73.40;;;;;;5032320;28;20045;-50
2021/12/08 02:57:25;;;;;;;5.13;0.93;;;9.70;73.40;;;;;;5036465;28;20048;-46
2021/12/08 02:59:52;;;;;;;2.60;1.27;;;9.70;73.50;;;;;;5021345;28;20501;-48
2021/12/08 03:02:19;;;;;;;1.67;0.63;;;9.70;73.40;;;;;;5036057;28;20037;-50
2021/12/08 03:04:46;;;;;;;2.55;0.60;;;9.80;73.40;;;;;;5036570;28;20049;-50
2021/12/08 03:07:13;;;;;;;1.45;0.68;;;9.80;73.20;;;;;;5025193;28;20037;-47
2021/12/08 03:09:45;;;;;;;1.20;0.60;;;9.70;73.20;;;;;;5015616;28;20040;-47
2021/12/08 03:12:12;;;;;;;2.80;1.40;;;9.70;73.20;;;;;;5028382;28;20037;-49
2021/12/08 03:14:40;;;;;;;1.63;0.70;;;9.70;73.20;;;;;;5033296;28;20037;-46
2021/12/08 03:17:09;;;;;;;2.72;0.95;;;9.70;73.20;;;;;;5016535;28;20049;-47
2021/12/08 03:19:37;;;;;;;5.25;1.23;;;9.80;73.30;;;;;;5019836;28;20033;-47
2021/12/08 03:22:09;;;;;;;3.45;1.00;;;9.70;73.20;;;;;;5027905;28;20045;-49
2021/12/08 03:24:40;;;;;;;2.00;1.33;;;9.80;73.20;;;;;;5036249;28;20594;-46
2021/12/08 03:27:16;;;;;;;2.83;0.85;;;9.70;73.10;;;;;;5027930;28;20136;-48
2021/12/08 03:29:52;;;;;;;1.92;0.63;;;9.80;73.10;;;;;;5042844;22;20052;-49
2021/12/08 03:32:38;;;;;;;1.83;0.88;;;9.70;73.00;;;;;;5056311;28;20059;-47
2021/12/08 03:35:15;;;;;;;6.32;1.10;;;9.80;73.10;;;;;;5055787;28;20045;-48
2021/12/08 03:37:46;;;;;;;5.78;1.20;;;9.70;73.10;;;;;;5055905;28;20562;-48
2021/12/08 03:40:18;;;;;;;2.25;1.17;;;9.80;73.10;;;;;;5033548;28;20038;-46
2021/12/08 03:42:47;;;;;;;4.00;1.40;;;9.70;72.90;;;;;;5030086;28;20037;-46
2021/12/08 03:45:43;;;;;;;1.80;1.08;;;9.70;72.90;;;;;;5032686;28;20069;-47
2021/12/08 03:48:38;;;;;;;3.53;0.90;;;9.70;72.80;;;;;;5022403;28;20041;-51
2021/12/08 03:51:04;;;;;;;5.60;1.30;;;9.80;72.80;;;;;;5031910;28;20045;-48
2021/12/08 03:53:31;;;;;;;3.42;0.82;;;9.70;72.60;;;;;;5032631;28;20045;-46
2021/12/08 03:55:59;;;;;;;3.85;1.10;;;9.70;72.60;;;;;;5016058;28;20125;-47
2021/12/08 03:58:26;;;;;;;4.95;1.20;;;9.70;72.70;;;;;;5026780;28;20177;-46
2021/12/08 04:00:57;;;;;;;4.22;0.98;;;9.70;72.70;;;;;;5020738;28;20092;-45
2021/12/08 04:03:26;;;;;;;2.90;1.00;;;9.70;72.80;;;;;;5030706;28;20042;-45
2021/12/08 04:08:41;;;;;;;3.55;1.13;;;9.70;72.60;;;;;;5019616;28;20087;-47
2021/12/08 04:11:12;;;;;;;3.03;1.17;;;9.70;72.50;;;;;;5029174;28;20038;-47
2021/12/08 04:13:49;;;;;;;1.55;0.80;;;9.70;72.40;;;;;;5011970;28;20030;-47
2021/12/08 04:16:21;;;;;;;3.85;1.40;;;9.70;72.40;;;;;;5012969;28;20041;-48
2021/12/08 04:18:48;;;;;;;8.18;1.60;;;9.70;72.30;;;;;;5032268;28;20052;-46
2021/12/08 04:21:17;;;;;;;3.20;1.23;;;9.60;72.20;;;;;;5030005;28;20083;-46
2021/12/08 04:23:46;;;;;;;2.47;1.05;;;9.60;72.20;;;;;;5017844;28;20072;-46
2021/12/08 04:26:18;;;;;;;3.78;1.13;;;9.60;72.80;;;;;;5020753;28;20567;-49
2021/12/08 04:28:45;;;;;;;;;;;9.60;72.10;;;;;;5016910;28;20054;-47
2021/12/08 04:31:20;;;;;;;6.68;1.27;;;9.60;72.10;;;;;;5029493;28;19967;-46
2021/12/08 04:33:59;;;;;;;3.53;1.52;;;9.60;71.90;;;;;;5031779;28;20049;-46
2021/12/08 04:36:31;;;;;;;3.42;0.98;;;9.60;71.90;;;;;;5015035;28;20042;-49
2021/12/08 04:39:02;;;;;;;5.30;1.08;;;9.50;71.90;;;;;;5030448;28;20533;-46
2021/12/08 04:41:37;;;;;;;3.80;0.95;;;9.50;72.00;;;;;;5031123;28;20128;-46
2021/12/08 04:44:19;;;;;;;4.40;1.38;;;9.40;71.90;;;;;;5015189;28;20099;-47
2021/12/08 04:47:04;;;;;;;3.85;1.30;;;9.40;71.80;;;;;;5029804;28;20037;-46
2021/12/08 04:50:20;;;;;;;4.15;1.17;;;9.40;71.90;;;;;;5031971;28;20455;-47
2021/12/08 04:53:24;;;;;;;5.50;1.42;;;9.30;71.90;;;;;;5024155;28;20049;-46
2021/12/08 05:04:26;;;;;;;4.35;1.33;;;9.20;71.90;;;;;;5017759;28;20656;-46
2021/12/08 05:07:17;;;;;;;3.80;1.20;;;9.10;72.00;;;;;;5025441;28;20060;-51
2021/12/08 05:09:47;;;;;;;6.72;1.75;;;9.10;72.10;;;;;;5015103;28;20045;-45
2021/12/08 05:12:16;;;;;;;8.00;1.90;;;9.00;72.30;;;;;;5011892;28;20054;-47
2021/12/08 05:14:51;;;;;;;4.30;1.40;;;9.00;72.40;;;;;;5019185;28;20038;-49
2021/12/08 05:17:23;;;;;;;6.82;1.50;;;9.00;72.50;;;;;;5017453;28;20049;-46
2021/12/08 05:19:55;;;;;;;2.65;1.88;;;9.00;72.50;;;;;;5020042;28;20107;-47
2021/12/08 05:22:34;;;;;;;4.60;1.60;;;9.00;72.60;;;;;;5014032;28;20042;-48
2021/12/08 05:25:07;;;;;;;3.33;1.27;;;9.00;72.40;;;;;;5028589;28;20042;-47
2021/12/08 05:27:40;;;;;;;5.70;2.13;;;9.00;72.40;;;;;;5030742;28;20099;-50
2021/12/08 05:30:31;;;;;;;8.40;2.80;;;9.00;73.00;;;;;;5022100;28;20091;-47
2021/12/08 05:33:00;;;;;;;8.07;2.45;;;9.10;72.30;;;;;;5031071;28;20053;-48
2021/12/08 05:35:28;;;;;;;5.07;2.03;;;9.10;72.30;;;;;;5030859;28;20509;-47
2021/12/08 05:37:56;;;;;;;4.43;2.10;;;9.00;72.30;;;;;;5020627;28;20076;-49
2021/12/08 05:40:34;;;;;;;5.35;2.45;;;9.10;72.30;;;;;;5019188;28;20045;-46
2021/12/08 05:43:02;;;;;;;4.57;1.20;;;9.10;72.30;;;;;;5018972;28;21253;-47
2021/12/08 05:45:28;;;;;;;2.88;1.35;;;9.10;72.40;;;;;;5025075;28;20046;-48
2021/12/08 05:47:56;;;;;;;4.13;1.42;;;9.10;72.40;;;;;;5019579;28;20041;-47
2021/12/08 05:50:36;;;;;;;6.70;1.58;;;9.10;72.30;;;;;;5028004;28;20663;-46
2021/12/08 05:53:04;;;;;;;6.93;1.58;;;9.10;72.20;;;;;;5001596;28;20129;-49
2021/12/08 05:55:34;;;;;;;4.95;1.23;;;9.10;72.20;;;;;;5001064;28;20061;-49
2021/12/08 05:58:03;;;;;;;3.78;1.50;;;9.00;72.00;;;;;;5010959;28;20054;-48
2021/12/08 06:00:40;;;;;;;8.25;1.90;;;9.00;72.00;;;;;;5016328;28;20496;-50
2021/12/08 06:03:08;;;;;;;4.05;1.55;;;9.00;71.90;;;;;;5025583;28;20505;-47
2021/12/08 06:05:35;;;;;;;5.22;1.30;;;9.00;72.00;;;;;;5029273;28;20179;-49
2021/12/08 06:08:02;;;;;;;3.50;1.52;;;9.00;71.90;;;;;;5008826;28;20108;-49
2021/12/08 06:10:35;;;;;;;3.88;1.40;;;9.00;71.80;;;;;;5018195;28;20642;-48
2021/12/08 06:13:04;;;;;;;4.72;1.50;;;9.00;71.80;;;;;;5024156;28;20041;-46
2021/12/08 06:15:31;;;;;;;5.85;1.90;;;9.00;71.80;;;;;;4991793;28;20046;-57
2021/12/08 06:17:59;;;;;;;4.40;1.20;;;9.00;71.80;;;;;;4999094;28;20476;-51
2021/12/08 06:20:31;;;;;;;4.20;1.00;;;9.00;71.70;;;;;;5002802;28;20041;-52
2021/12/08 06:22:59;;;;;;;4.03;1.50;;;9.00;71.50;;;;;;5019480;28;20520;-56
2021/12/08 06:25:27;;;;;;;4.15;1.42;;;9.00;71.40;;;;;;5015824;28;20498;-56
2021/12/08 06:27:54;;;;;;;4.03;1.70;;;9.00;71.40;;;;;;5002142;28;20046;-57
2021/12/08 06:30:25;;;;;;;4.63;1.95;;;9.00;71.30;;;;;;5019058;28;20038;-56
2021/12/08 06:32:52;;;;;;;9.43;2.28;;;9.10;71.20;;;;;;4990002;28;20731;-54
2021/12/08 06:35:28;;;;;;;3.50;1.33;;;9.00;71.10;;;;;;4999637;28;20069;-56
2021/12/08 06:37:56;;;;;;;5.07;1.60;;;9.00;70.80;;;;;;5006244;28;20046;-56
2021/12/08 06:40:43;;;;;;;3.92;1.52;;;9.00;70.90;;;;;;5008671;28;20044;-56
2021/12/08 06:43:16;;;;;;;3.17;1.65;;;9.00;70.60;;;;;;5000788;28;20108;-53
2021/12/08 06:45:46;;;;;;;6.25;1.02;;;9.00;70.50;;;;;;5010825;28;20046;-55
2021/12/08 06:48:18;;;;;;;3.83;1.33;;;8.90;70.40;;;;;;5016871;28;20041;-57
2021/12/08 06:51:00;;;;;;;5.20;1.75;;;8.90;70.30;;;;;;5024184;28;20580;-55
2021/12/08 06:53:28;;;;;;;4.75;1.10;;;8.90;70.20;;;;;;5010536;28;20421;-56
2021/12/08 06:56:06;;;;;;;4.13;1.20;;;8.90;70.20;;;;;;5015016;28;20053;-53
2021/12/08 06:58:37;;;;;;;3.90;1.55;;;8.90;69.80;;;;;;5025225;28;20037;-56
2021/12/08 07:01:29;;;;;;;4.00;1.08;;;8.90;70.00;;;;;;5025310;28;20521;-58
2021/12/08 07:07:12;;;;;;;3.88;1.40;;;8.80;69.80;;;;;;4997118;28;20120;-56
2021/12/08 07:09:51;;;;;;;3.67;1.30;;;8.80;69.70;;;;;;5011852;28;20053;-53
2021/12/08 07:12:22;;;;;;;4.28;1.30;;;8.80;69.80;;;;;;5011005;28;20038;-54
2021/12/08 07:15:10;;;;;;;4.85;1.98;;;8.80;69.80;;;;;;5013906;28;20046;-54
2021/12/08 07:17:41;;;;;;;2.63;1.48;;;8.70;69.70;;;;;;5033313;28;20374;-53
2021/12/08 07:20:17;;;;;;;1.48;0.80;;;8.80;69.90;;;;;;5018612;28;20137;-53
2021/12/08 07:22:48;;;;;;;6.07;1.35;;;8.70;69.80;;;;;;5001849;28;20042;-55
2021/12/08 07:25:18;;;;;;;4.43;1.35;;;8.70;69.90;;;;;;5011543;28;20061;-54
2021/12/08 07:27:46;;;;;;;3.15;1.40;;;8.70;69.90;;;;;;5012294;28;20046;-54
2021/12/08 07:30:39;;;;;;;4.22;1.40;;;8.70;70.00;;;;;;5012587;28;20049;-50
2021/12/08 07:33:06;;;;;;;8.10;1.63;;;8.60;69.80;;;;;;5022047;28;20045;-53
2021/12/08 07:35:38;;;;;;;5.45;1.85;;;8.60;70.00;;;;;;5029362;28;20393;-51
2021/12/08 07:38:06;;;;;;;;;;;8.60;69.90;;;;;;5032689;28;20072;-57
2021/12/08 07:40:44;;;;;;;5.85;1.70;;;8.70;69.90;;;;;;5031246;28;20360;-56
2021/12/08 07:43:16;;;;;;;4.88;1.27;;;8.70;69.80;;;;;;5020226;28;20084;-54
2021/12/08 07:46:05;;;;;;;5.97;1.40;;;8.60;69.90;;;;;;5027618;28;20058;-55
2021/12/08 07:48:40;;;;;;;5.07;1.80;;;8.60;69.80;;;;;;5015625;28;20081;-57
2021/12/08 07:51:15;;;;;;;4.40;1.52;;;8.60;70.00;;;;;;5017370;28;20041;-54
2021/12/08 07:53:42;;;;;;;4.70;1.60;;;8.60;70.00;;;;;;5023255;28;20084;-57
2021/12/08 07:56:18;;;;;;;5.65;1.73;;;8.60;70.00;;;;;;5032696;28;20045;-53
2021/12/08 07:58:50;;;;;;;6.43;1.60;;;8.60;69.90;;;;;;5032907;28;20403;-50
2021/12/08 08:01:19;;;;;;;;;;;8.50;70.00;;;;;;5023318;28;20551;-56
2021/12/08 08:03:48;;;;;;;5.82;1.42;;;8.60;70.00;;;;;;5031297;28;20295;-56
2021/12/08 08:06:21;;;;;;;6.07;2.03;;;8.60;70.00;;;;;;5032608;28;20060;-56
2021/12/08 08:08:49;;;;;;;5.20;0.98;;;8.60;70.00;;;;;;5012178;28;20045;-50
2021/12/08 08:11:22;;;;;;;3.55;1.65;;;8.50;70.00;;;;;;5025261;28;20095;-52
2021/12/08 08:13:50;;;;;;;3.20;1.30;;;8.50;70.00;;;;;;5032922;28;20504;-53
2021/12/08 08:16:21;;;;;;;6.25;1.63;;;8.50;70.10;;;;;;5016351;28;20046;-57
2021/12/08 08:18:56;;;;;;;6.57;1.13;;;8.50;70.10;;;;;;5014377;28;20456;-54
2021/12/08 08:21:28;;;;;;;5.57;2.03;;;8.50;70.20;;;;;;5014378;28;20049;-52
2021/12/08 08:23:58;;;;;;;5.57;1.60;;;8.50;70.10;;;;;;5012070;28;20038;-53
2021/12/08 08:26:25;;;;;;;3.13;1.10;;;8.60;70.10;;;;;;5010499;28;20100;-54
2021/12/08 08:28:53;;;;;;;4.22;1.75;;;8.60;70.20;;;;;;5006727;28;20452;-52
2021/12/08 08:31:31;;;;;;;6.65;2.03;;;8.60;70.20;;;;;;5012441;28;20050;-55
2021/12/08 08:33:58;;;;;;;5.72;2.30;;;8.60;70.10;;;;;;5008236;28;20147;-52
2021/12/08 08:36:30;;;;;;;4.35;1.33;;;8.60;70.10;;;;;;5001779;28;20057;-52
2021/12/08 08:39:20;;;;;;;7.80;2.03;;;8.60;70.10;;;;;;5011621;28;20038;-53
2021/12/08 08:42:05;;;;;;;5.10;1.75;;;8.60;69.90;;;;;;5004671;28;20292;-55
2021/12/08 08:45:00;;;;;;;2.45;1.42;;;8.60;69.90;;;;;;4999220;28;20058;-54
2021/12/08 08:47:32;;;;;;;2.55;1.23;;;8.70;69.80;;;;;;5005779;28;20108;-55
2021/12/08 08:50:00;;;;;;;6.18;1.40;;;8.70;69.90;;;;;;5013289;28;20054;-53
2021/12/08 08:52:44;;;;;;;5.65;1.67;;;8.70;69.80;;;;;;5012062;28;20044;-56
2021/12/08 08:55:50;;;;;;;6.97;1.38;;;8.70;69.80;;;;;;5000317;28;20115;-55
2021/12/08 08:58:20;;;;;;;1.95;1.08;;;8.70;69.70;;;;;;5009747;28;20631;-55
2021/12/08 09:00:55;;;;;;;6.18;1.85;;;8.60;69.80;;;;;;5022164;28;20045;-53
2021/12/08 09:03:27;;;;;;;5.75;2.00;;;8.70;69.80;;;;;;5001189;28;20046;-53
2021/12/08 09:06:00;;;;;;;;;;;8.60;69.90;;;;;;5002691;28;20046;-53
2021/12/08 09:08:30;;;;;;;7.53;2.03;;;8.70;69.90;;;;;;5015172;28;19929;-50
2021/12/08 09:11:06;;;;;;;4.57;1.45;;;8.70;70.00;;;;;;5026223;28;20497;-54
2021/12/08 09:13:38;;;;;;;4.03;1.58;;;8.70;69.90;;;;;;4995833;28;20047;-58
2021/12/08 09:16:15;;;;;;;6.78;2.15;;;8.70;70.00;;;;;;5018948;28;20046;-53
2021/12/08 09:18:52;;;;;;;4.28;2.33;;;8.70;70.00;;;;;;5031100;28;20640;-54
2021/12/08 09:21:28;;;;;;;4.38;1.90;;;8.70;69.80;;;;;;5031339;28;20049;-53
2021/12/08 09:23:58;;;;;;;4.35;1.33;;;8.70;69.80;;;;;;5023058;28;20100;-54
2021/12/08 09:26:30;;;;;;;1.77;1.00;;;8.80;69.60;;;;;;5021286;28;20034;-56
2021/12/08 09:29:00;;;;;;;;;;;8.80;69.50;;;;;;5023984;28;20042;-57
2021/12/08 09:31:32;;;;;;;3.95;1.13;;;8.80;69.30;;;;;;5011527;28;19921;-50
2021/12/08 09:34:13;;;;;;;3.67;1.20;;;8.80;69.20;;;;;;5012374;28;20046;-56
2021/12/08 09:36:46;;;;;;;4.32;1.67;;;8.80;69.00;;;;;;5023213;28;20562;-56
2021/12/08 09:39:28;;;;;;;3.67;1.15;;;8.80;69.00;;;;;;5015028;28;20497;-57
2021/12/08 09:42:03;;;;;;;3.92;1.30;;;8.80;68.80;;;;;;4991975;28;20115;-56
2021/12/08 09:44:39;;;;;;;5.07;1.33;;;8.70;68.70;;;;;;5014950;28;20037;-57
2021/12/08 09:47:10;;;;;;;5.97;1.40;;;8.70;68.80;;;;;;5007467;28;20045;-57
2021/12/08 09:49:36;;;;;;;4.15;2.08;;;8.70;69.20;;;;;;5005108;28;20038;-53
2021/12/08 09:52:08;;;;;;;5.15;1.70;;;8.70;69.10;;;;;;5026231;28;20476;-54
2021/12/08 09:54:38;;;;;;;4.03;1.60;;;8.80;69.20;;;;;;5009571;28;20046;-57
2021/12/08 09:57:11;;;;;;;3.00;1.95;;;8.80;69.20;;;;;;5010506;28;20042;-56
2021/12/08 09:59:45;;;;;;;5.85;1.60;;;8.90;69.30;;;;;;5016040;28;20122;-53
2021/12/08 10:02:24;;;;;;;4.82;1.10;;;8.90;69.20;;;;;;5008261;28;20072;-53
2021/12/08 10:04:55;;;;;;;2.97;1.10;;;9.00;69.10;;;;;;5023408;28;20552;-53
2021/12/08 10:07:22;;;;;;;4.75;1.50;;;9.00;69.10;;;;;;5021284;28;20041;-56
2021/12/08 10:09:49;;;;;;;6.55;1.10;;;9.00;69.10;;;;;;5006574;28;20077;-56
2021/12/08 10:12:16;;;;;;;4.75;1.30;;;9.10;69.00;;;;;;5002850;28;20084;-54
2021/12/08 10:14:46;;;;;;;4.03;1.70;;;9.10;68.90;;;;;;5017548;28;20050;-58
2021/12/08 10:17:14;;;;;;;4.95;1.52;;;9.20;69.10;;;;;;5022432;28;20049;-56
2021/12/08 10:19:42;;;;;;;6.03;1.38;;;9.20;69.00;;;;;;5030035;28;20037;-56
2021/12/08 10:22:20;;;;;;;4.00;1.08;;;9.20;68.90;;;;;;5012991;28;20033;-56
2021/12/08 10:25:09;;;;;;;2.25;1.13;;;9.30;68.60;;;;;;5020660;28;20499;-55
2021/12/08 10:28:03;;;;;;;4.65;1.17;;;9.40;68.30;;;;;;5030609;28;20046;-56
2021/12/08 10:30:32;;;;;;;3.25;1.00;;;9.40;68.10;;;;;;5023050;28;20095;-53
2021/12/08 10:33:07;;;;;;;2.80;1.33;;;9.50;68.70;;;;;;5014285;28;20065;-54
2021/12/08 10:35:49;;;;;;;4.55;1.90;;;9.50;68.50;;;;;;5019769;28;20091;-52
2021/12/08 10:38:19;;;;;;;3.58;1.10;;;9.60;67.80;;;;;;4990763;28;20506;-54
2021/12/08 10:40:57;;;;;;;3.75;1.23;;;9.60;67.90;;;;;;5013415;28;20053;-56
2021/12/08 10:43:24;;;;;;;2.40;1.17;;;9.60;66.90;;;;;;5017350;28;20590;-51
2021/12/08 10:46:00;;;;;;;2.65;0.90;;;9.60;67.30;;;;;;5003467;28;20093;-53
2021/12/08 10:48:33;;;;;;;3.30;1.10;;;9.70;67.00;;;;;;4992972;28;20108;-53
2021/12/08 10:56:40;;;;;;;4.47;1.38;;;9.70;67.30;;;;;;5005376;28;20045;-55
2021/12/08 10:59:07;;;;;;;5.75;1.92;;;9.80;67.50;;;;;;5014753;28;20073;-57
2021/12/08 11:01:35;;;;;;;1.52;0.90;;;9.80;67.50;;;;;;5031255;28;20680;-55
2021/12/08 11:04:08;;;;;;;3.58;1.38;;;9.90;67.50;;;;;;5031977;28;20427;-54
2021/12/08 11:06:37;;;;;;;4.30;1.50;;;9.90;66.80;;;;;;5024096;28;20140;-51
2021/12/08 11:09:12;;;;;;;6.53;1.50;;;9.90;66.70;;;;;;5016154;28;20038;-55
2021/12/08 11:11:43;;;;;;;4.18;1.40;;;10.00;66.90;;;;;;5021227;28;20053;-53
2021/12/08 11:14:11;;;;;;;3.30;1.33;;;10.00;67.10;;;;;;5006503;28;20074;-55
2021/12/08 11:16:41;;;;;;;7.50;1.42;;;10.00;66.90;;;;;;5011839;28;20120;-55
2021/12/08 11:19:14;;;;;;;2.05;1.27;;;10.10;66.90;;;;;;5015624;28;20041;-53
2021/12/08 11:21:55;;;;;;;1.95;0.85;;;10.10;66.80;;;;;;5031379;28;20087;-52
2021/12/08 11:24:35;;;;;;;2.55;1.08;;;10.20;66.00;;;;;;5030907;28;20041;-55
2021/12/08 11:27:07;;;;;;;3.65;1.63;;;10.20;66.30;;;;;;5020559;28;20060;-53
2021/12/08 11:29:42;;;;;;;5.95;1.13;;;10.20;66.10;;;;;;5031033;28;20041;-54
2021/12/08 11:32:12;;;;;;;5.68;1.08;;;10.30;65.80;;;;;;5031951;28;20052;-52
2021/12/08 11:34:46;;;;;;;4.78;1.42;;;10.30;66.30;;;;;;5029298;28;20052;-54
2021/12/08 11:37:22;;;;;;;2.53;1.65;;;10.40;65.90;;;;;;5036278;28;20045;-51
2021/12/08 11:39:52;;;;;;;4.38;1.17;;;10.40;65.70;;;;;;5021202;28;20501;-52
2021/12/08 11:42:26;;;;;;;3.83;1.40;;;10.50;66.00;;;;;;5011921;28;20065;-50
2021/12/08 11:44:58;;;;;;;3.10;1.38;;;10.50;66.00;;;;;;5011126;28;20034;-55
2021/12/08 11:47:31;;;;;;;1.83;1.05;;;10.60;65.60;;;;;;5020913;28;20052;-54
2021/12/08 11:50:01;;;;;;;2.67;1.00;;;10.60;65.10;;;;;;5017334;28;20050;-54
2021/12/08 11:52:32;;;;;;;4.13;1.60;;;10.60;65.00;;;;;;5027399;28;20099;-53
2021/12/08 11:55:03;;;;;;;3.20;1.23;;;10.60;65.50;;;;;;5017258;28;20651;-55
2021/12/08 11:57:36;;;;;;;2.83;1.15;;;10.60;64.80;;;;;;5019935;28;20517;-56
2021/12/08 12:00:10;;;;;;;4.80;1.63;;;10.60;64.80;;;;;;5031085;28;20053;-54
2021/12/08 12:02:57;;;;;;;3.63;1.20;;;10.60;64.40;;;;;;5010757;28;20080;-55
2021/12/08 12:05:33;;;;;;;4.13;1.00;;;10.50;64.40;;;;;;5011099;28;20049;-55
2021/12/08 12:08:05;;;;;;;2.35;1.17;;;10.50;64.80;;;;;;5013328;28;20569;-55
2021/12/08 12:10:36;;;;;;;2.38;1.08;;;10.50;65.00;;;;;;5019899;28;20575;-54
2021/12/08 12:13:03;;;;;;;1.95;1.30;;;10.50;65.10;;;;;;5022391;28;20740;-55
2021/12/08 12:15:31;;;;;;;2.63;1.48;;;10.60;65.30;;;;;;5016796;28;20037;-55
2021/12/08 12:17:57;;;;;;;3.03;0.98;;;10.60;65.20;;;;;;5029031;28;20042;-56
2021/12/08 12:20:36;;;;;;;5.18;1.40;;;10.60;65.10;;;;;;5013968;28;20038;-56
2021/12/08 12:23:44;;;;;;;3.63;1.23;;;10.70;64.70;;;;;;5012375;28;20045;-55
2021/12/08 12:26:46;;;;;;;3.33;1.10;;;10.70;63.80;;;;;;5020695;28;20490;-51
2021/12/08 12:29:27;;;;;;;4.10;1.08;;;10.80;63.40;;;;;;5012639;28;20093;-55
2021/12/08 12:32:09;;;;;;;2.65;1.25;;;10.80;63.70;;;;;;5015928;28;20062;-52
2021/12/08 12:34:39;;;;;;;3.40;1.15;;;10.80;63.70;;;;;;5017893;28;20045;-55
2021/12/08 12:37:33;;;;;;;4.05;1.02;;;10.80;64.60;;;;;;5032055;28;20091;-54
2021/12/08 12:40:02;;;;;;;3.08;1.25;;;10.90;63.90;;;;;;5020507;28;20050;-54
2021/12/08 12:42:50;;;;;;;3.63;1.27;;;10.90;64.50;;;;;;5014624;28;20576;-55
2021/12/08 12:45:17;;;;;;;4.72;1.35;;;11.00;63.40;;;;;;5016319;28;20038;-55
2021/12/08 12:48:20;;;;;;;4.32;1.70;;;11.00;63.80;;;;;;5018242;28;20095;-52
2021/12/08 12:50:57;;;;;;;2.40;1.17;;;11.00;62.40;;;;;;5011079;28;20072;-53
2021/12/08 12:53:47;;;;;;;5.07;1.35;;;11.00;62.80;;;;;;5009717;28;20081;-50
2021/12/08 12:56:27;;;;;;;2.38;1.10;;;11.00;62.40;;;;;;5017821;28;20050;-54
2021/12/08 12:58:56;;;;;;;2.80;1.13;;;11.00;62.40;;;;;;5008109;28;20565;-55
2021/12/08 13:01:31;;;;;;;4.13;1.58;;;11.00;62.90;;;;;;5010150;28;20095;-54
2021/12/08 13:04:06;;;;;;;3.20;1.02;;;11.00;62.70;;;;;;5005390;28;20073;-55
2021/12/08 13:06:47;;;;;;;3.42;1.10;;;11.00;62.90;;;;;;5011828;28;20042;-54
2021/12/08 13:09:36;;;;;;;3.75;1.27;;;11.00;61.80;;;;;;5009861;28;20042;-55
2021/12/08 13:12:13;;;;;;;2.95;1.00;;;11.00;62.00;;;;;;5023332;28;20049;-54
2021/12/08 13:14:44;;;;;;;3.95;1.13;;;11.00;62.50;;;;;;5028150;28;20116;-56
2021/12/08 13:17:19;;;;;;;5.28;4.60;;;11.00;62.80;;;;;;5011337;28;20049;-55
2021/12/08 13:19:57;;;;;;;8.40;6.55;;;11.00;62.60;;;;;;5014486;28;20065;-51
2021/12/08 13:22:51;;;;;;;11.43;8.40;;;11.00;62.10;;;;;;5020150;28;20068;-53
2021/12/08 13:25:33;;;;;;;8.70;6.05;;;11.00;60.90;;;;;;4991222;28;20050;-53
2021/12/08 13:28:35;;;;;;;39.28;22.15;;;11.00;60.90;;;;;;5002612;28;20049;-55
2021/12/08 13:31:14;;;;;;;27.92;23.48;;;11.00;61.10;;;;;;5011855;28;20506;-55
2021/12/08 13:33:50;;;;;;;12.35;7.72;;;11.00;61.10;;;;;;5030740;28;20049;-54
2021/12/08 13:36:20;;;;;;;25.73;22.48;;;11.00;61.00;;;;;;5024761;28;20099;-52
2021/12/08 13:39:09;;;;;;;12.68;10.52;;;10.90;61.50;;;;;;5012221;28;20042;-51
2021/12/08 13:41:38;;;;;;;16.63;10.35;;;11.00;61.50;;;;;;5015719;28;20449;-53
2021/12/08 13:44:22;;;;;;;14.23;9.20;;;10.90;62.10;;;;;;5008196;28;20379;-54
2021/12/08 13:46:53;;;;;;;46.80;22.45;;;11.00;61.20;;;;;;5009371;28;20588;-55
2021/12/08 13:49:27;;;;;;;19.15;12.20;;;11.00;62.00;;;;;;5016121;28;20497;-53
2021/12/08 13:52:25;;;;;;;13.02;9.23;;;11.00;61.50;;;;;;5025406;28;20409;-55
2021/12/08 13:54:58;;;;;;;11.73;8.77;;;11.10;61.00;;;;;;5024670;28;20088;-56
2021/12/08 13:57:34;;;;;;;17.85;11.30;;;11.10;61.90;;;;;;5022446;28;20096;-54
2021/12/08 14:00:18;;;;;;;12.73;6.75;;;11.10;61.90;;;;;;5030011;28;20117;-52
2021/12/08 14:02:50;;;;;;;7.53;6.30;;;11.10;60.80;;;;;;5031186;28;20184;-50
2021/12/08 14:05:21;;;;;;;6.68;4.50;;;11.10;61.50;;;;;;5010465;28;20497;-52
2021/12/08 14:07:53;;;;;;;4.97;2.70;;;11.10;61.40;;;;;;5013078;28;20057;-54